createdAt,value
2022-11-02T00:00:27.714Z,40.15
2022-11-02T00:01:09.182Z,35.30
2022-11-02T00:01:46.339Z,44.65
2022-11-02T00:02:18.657Z,34.80
2022-11-02T00:02:51.009Z,35.55
2022-11-02T00:03:25.793Z,46.10
2022-11-02T00:03:58.001Z,35.83
2022-11-02T00:04:30.075Z,38.33
2022-11-02T00:05:02.189Z,37.42
2022-11-02T00:05:36.951Z,41.42
2022-11-02T00:06:09.059Z,64.95
2022-11-02T00:06:41.464Z,35.35
2022-11-02T00:07:18.738Z,41.30
2022-11-02T00:07:51.316Z,32.92
2022-11-02T00:08:23.377Z,33.70
2022-11-02T00:08:58.033Z,34.88
2022-11-02T00:09:30.089Z,67.70
2022-11-02T00:10:02.313Z,29.80
2022-11-02T00:10:37.078Z,39.13
2022-11-02T00:11:09.267Z,31.70
2022-11-02T00:11:41.865Z,76.40
2022-11-02T00:12:13.953Z,42.33
2022-11-02T00:12:48.889Z,34.00
2022-11-02T00:13:21.021Z,38.08
2022-11-02T00:13:53.116Z,47.67
2022-11-02T00:14:28.055Z,40.28
2022-11-02T00:15:00.159Z,34.58
2022-11-02T00:15:36.462Z,37.25
2022-11-02T00:16:14.777Z,67.72
2022-11-02T00:16:47.148Z,40.63
2022-11-02T00:17:19.276Z,44.22
2022-11-02T00:17:58.319Z,42.30
2022-11-02T00:18:30.956Z,34.67
2022-11-02T00:19:06.906Z,30.15
2022-11-02T00:19:38.999Z,45.10
2022-11-02T00:20:14.310Z,32.72
2022-11-02T00:20:49.054Z,31.02
2022-11-02T00:21:21.972Z,58.22
2022-11-02T00:21:55.758Z,34.35
2022-11-02T00:22:34.020Z,38.10
2022-11-02T00:23:07.980Z,29.23
2022-11-02T00:23:41.668Z,33.38
2022-11-02T00:24:16.429Z,34.35
2022-11-02T00:24:48.509Z,30.80
2022-11-02T00:25:23.800Z,31.55
2022-11-02T00:25:58.695Z,32.45
2022-11-02T00:26:38.808Z,48.88
2022-11-02T00:27:11.528Z,24.45
2022-11-02T00:27:43.760Z,41.38
2022-11-02T00:28:19.250Z,34.42
2022-11-02T00:28:51.606Z,34.10
2022-11-02T00:29:24.455Z,26.95
2022-11-02T00:29:59.233Z,29.75
2022-11-02T00:30:31.339Z,44.20
2022-11-02T00:31:03.598Z,39.67
2022-11-02T00:31:38.362Z,38.53
2022-11-02T00:32:10.449Z,29.10
2022-11-02T00:32:42.707Z,48.67
2022-11-02T00:33:17.384Z,37.95
2022-11-02T00:33:49.621Z,38.53
2022-11-02T00:34:21.752Z,27.38
2022-11-02T00:34:56.404Z,27.00
2022-11-02T00:35:28.717Z,27.25
2022-11-02T00:36:00.842Z,31.55
2022-11-02T00:36:36.804Z,70.88
2022-11-02T00:37:08.867Z,27.48
2022-11-02T00:37:43.633Z,40.22
2022-11-02T00:38:18.426Z,26.08
2022-11-02T00:38:50.802Z,33.22
2022-11-02T00:39:24.286Z,32.88
2022-11-02T00:39:58.941Z,33.03
2022-11-02T00:40:31.047Z,34.85
2022-11-02T00:41:03.226Z,28.52
2022-11-02T00:41:37.924Z,36.10
2022-11-02T00:42:10.179Z,33.65
2022-11-02T00:42:42.275Z,51.38
2022-11-02T00:43:14.520Z,30.65
2022-11-02T00:43:49.200Z,36.25
2022-11-02T00:44:21.263Z,50.65
2022-11-02T00:44:53.384Z,42.88
2022-11-02T00:45:28.233Z,43.03
2022-11-02T00:46:01.098Z,36.50
2022-11-02T00:46:33.181Z,34.88
2022-11-02T00:47:07.962Z,36.15
2022-11-02T00:47:40.202Z,36.20
2022-11-02T00:48:12.279Z,34.95
2022-11-02T00:48:47.189Z,44.83
2022-11-02T00:49:19.298Z,36.35
2022-11-02T00:49:51.580Z,35.15
2022-11-02T00:50:26.269Z,30.30
2022-11-02T00:50:58.356Z,34.25
2022-11-02T00:51:33.612Z,43.63
2022-11-02T00:52:09.066Z,34.00
2022-11-02T00:52:43.850Z,32.95
2022-11-02T00:53:16.076Z,30.63
2022-11-02T00:53:58.490Z,29.35
2022-11-02T00:54:31.030Z,35.95
2022-11-02T00:55:03.237Z,32.47
2022-11-02T00:55:38.245Z,31.95
2022-11-02T00:56:10.724Z,36.05
2022-11-02T00:56:42.812Z,30.00
2022-11-02T00:57:17.475Z,39.60
2022-11-02T00:57:49.754Z,37.78
2022-11-02T00:58:22.069Z,33.10
2022-11-02T00:58:58.431Z,29.30
2022-11-02T00:59:30.532Z,36.83
2022-11-02T01:00:02.881Z,34.95
2022-11-02T01:00:37.546Z,50.35
2022-11-02T01:01:09.758Z,34.90
2022-11-02T01:01:47.377Z,47.33
2022-11-02T01:02:22.281Z,30.30
2022-11-02T01:02:54.600Z,31.83
2022-11-02T01:03:26.674Z,30.55
2022-11-02T01:04:01.803Z,32.85
2022-11-02T01:04:34.285Z,31.90
2022-11-02T01:05:08.645Z,30.05
2022-11-02T01:05:43.318Z,30.77
2022-11-02T01:06:16.107Z,60.05
2022-11-02T01:06:48.205Z,48.83
2022-11-02T01:07:22.981Z,26.58
2022-11-02T01:07:57.740Z,29.08
2022-11-02T01:08:29.819Z,27.50
2022-11-02T01:09:06.520Z,30.35
2022-11-02T01:09:38.664Z,45.35
2022-11-02T01:10:11.658Z,27.63
2022-11-02T01:10:48.412Z,31.15
2022-11-02T01:11:23.875Z,25.90
2022-11-02T01:11:56.521Z,24.13
2022-11-02T01:12:31.190Z,35.67
2022-11-02T01:13:03.392Z,31.23
2022-11-02T01:13:35.469Z,31.63
2022-11-02T01:14:10.408Z,23.83
2022-11-02T01:14:42.566Z,30.60
2022-11-02T01:15:14.735Z,25.80
2022-11-02T01:15:49.380Z,24.02
2022-11-02T01:16:21.538Z,30.17
2022-11-02T01:16:54.749Z,24.50
2022-11-02T01:17:27.004Z,30.50
2022-11-02T01:18:01.981Z,32.58
2022-11-02T01:18:34.543Z,29.17
2022-11-02T01:19:07.053Z,29.23
2022-11-02T01:19:41.727Z,29.55
2022-11-02T01:20:14.082Z,33.67
2022-11-02T01:20:46.178Z,30.40
2022-11-02T01:21:20.835Z,56.33
2022-11-02T01:21:52.915Z,77.30
2022-11-02T01:22:25.358Z,34.13
2022-11-02T01:23:24.099Z,36.97
2022-11-02T01:23:58.779Z,32.22
2022-11-02T01:24:30.877Z,33.65
2022-11-02T01:25:06.263Z,30.00
2022-11-02T01:25:38.345Z,36.50
2022-11-02T01:26:11.988Z,29.83
2022-11-02T01:26:48.239Z,39.80
2022-11-02T01:27:20.325Z,35.17
2022-11-02T01:27:55.048Z,29.55
2022-11-02T01:28:27.256Z,37.03
2022-11-02T01:28:59.455Z,32.75
2022-11-02T01:29:31.551Z,35.40
2022-11-02T01:30:07.826Z,28.10
2022-11-02T01:30:41.225Z,37.42
2022-11-02T01:31:13.427Z,27.23
2022-11-02T01:31:48.709Z,37.38
2022-11-02T01:32:22.467Z,41.55
2022-11-02T01:32:54.553Z,36.28
2022-11-02T01:33:29.378Z,33.50
2022-11-02T01:34:01.585Z,35.67
2022-11-02T01:34:33.653Z,29.05
2022-11-02T01:35:08.749Z,34.55
2022-11-02T01:35:41.120Z,32.92
2022-11-02T01:36:14.930Z,49.92
2022-11-02T01:36:49.961Z,40.55
2022-11-02T01:37:22.381Z,29.23
2022-11-02T01:37:54.476Z,31.00
2022-11-02T01:38:29.139Z,30.55
2022-11-02T01:39:04.355Z,38.67
2022-11-02T01:39:36.481Z,44.50
2022-11-02T01:40:12.559Z,26.17
2022-11-02T01:40:44.648Z,32.33
2022-11-02T01:41:17.595Z,29.48
2022-11-02T01:41:55.428Z,30.73
2022-11-02T01:42:28.836Z,32.72
2022-11-02T01:43:01.775Z,34.38
2022-11-02T01:43:38.624Z,29.65
2022-11-02T01:44:28.854Z,29.50
2022-11-02T01:45:03.541Z,35.17
2022-11-02T01:45:35.751Z,35.38
2022-11-02T01:46:16.972Z,30.38
2022-11-02T01:46:51.699Z,28.23
2022-11-02T01:47:27.112Z,36.40
2022-11-02T01:48:02.026Z,25.27
2022-11-02T01:48:36.795Z,33.80
2022-11-02T01:49:17.750Z,28.15
2022-11-02T01:49:56.497Z,32.75
2022-11-02T01:50:28.780Z,28.15
2022-11-02T01:51:05.832Z,27.98
2022-11-02T01:51:44.389Z,33.85
2022-11-02T01:52:20.439Z,33.65
2022-11-02T01:52:52.910Z,26.35
2022-11-02T01:53:27.608Z,56.95
2022-11-02T01:54:08.779Z,25.52
2022-11-02T01:54:44.767Z,35.25
2022-11-02T01:55:23.295Z,29.52
2022-11-02T01:55:55.964Z,25.45
2022-11-02T01:56:31.883Z,29.23
2022-11-02T01:57:09.725Z,26.77
2022-11-02T01:57:46.934Z,35.35
2022-11-02T01:58:19.164Z,40.33
2022-11-02T01:58:59.851Z,29.42
2022-11-02T01:59:37.184Z,38.20
2022-11-02T02:00:12.737Z,24.75
2022-11-02T02:00:50.165Z,31.35
2022-11-02T02:01:22.529Z,29.77
2022-11-02T02:01:54.817Z,32.72
2022-11-02T02:02:28.419Z,26.23
2022-11-02T02:03:08.332Z,28.25
2022-11-02T02:03:43.597Z,29.85
2022-11-02T02:04:16.026Z,25.52
2022-11-02T02:04:55.479Z,23.08
2022-11-02T02:05:31.085Z,27.75
2022-11-02T02:06:09.165Z,29.70
2022-11-02T02:06:44.885Z,49.28
2022-11-02T02:07:18.254Z,29.45
2022-11-02T02:07:51.371Z,33.00
2022-11-02T02:08:28.080Z,24.83
2022-11-02T02:09:07.465Z,23.23
2022-11-02T02:09:39.643Z,33.80
2022-11-02T02:10:14.648Z,34.25
2022-11-02T02:10:46.757Z,30.25
2022-11-02T02:11:27.306Z,26.00
2022-11-02T02:11:59.372Z,28.15
2022-11-02T02:12:35.585Z,25.95
2022-11-02T02:13:08.051Z,26.65
2022-11-02T02:13:40.166Z,27.38
2022-11-02T02:14:17.263Z,19.95
2022-11-02T02:14:53.918Z,24.13
2022-11-02T02:15:44.092Z,28.95
2022-11-02T02:16:29.889Z,27.35
2022-11-02T02:17:21.147Z,28.42
2022-11-02T02:18:03.839Z,26.77
2022-11-02T02:18:43.291Z,28.40
2022-11-02T02:19:28.209Z,24.48
2022-11-02T02:20:10.868Z,25.60
2022-11-02T02:21:02.669Z,37.85
2022-11-02T02:21:46.237Z,30.60
2022-11-02T02:23:04.489Z,46.33
2022-11-02T02:24:10.294Z,26.65
2022-11-02T02:24:54.828Z,30.98
2022-11-02T02:25:45.602Z,26.25
2022-11-02T02:26:50.521Z,23.17
2022-11-02T02:27:30.286Z,25.67
2022-11-02T02:28:22.236Z,26.45
2022-11-02T02:28:59.314Z,26.73
2022-11-02T02:29:49.336Z,26.25
2022-11-02T02:30:21.739Z,31.48
2022-11-02T02:30:59.165Z,27.05
2022-11-02T02:31:39.589Z,25.60
2022-11-02T02:32:52.556Z,27.95
2022-11-02T02:33:34.689Z,33.50
2022-11-02T02:34:12.913Z,24.00
2022-11-02T02:34:51.963Z,34.20
2022-11-02T02:35:31.463Z,38.58
2022-11-02T02:36:12.042Z,24.90
2022-11-02T02:37:45.854Z,44.35
2022-11-02T02:38:25.413Z,24.08
2022-11-02T02:39:03.586Z,23.50
2022-11-02T02:39:45.015Z,26.25
2022-11-02T02:40:22.129Z,21.05
2022-11-02T02:40:59.986Z,26.83
2022-11-02T02:41:41.917Z,31.48
2022-11-02T02:42:20.131Z,28.10
2022-11-02T02:42:57.092Z,24.25
2022-11-02T02:43:39.714Z,31.58
2022-11-02T02:44:16.439Z,22.75
2022-11-02T02:44:58.896Z,31.38
2022-11-02T02:45:39.179Z,32.25
2022-11-02T02:46:19.088Z,25.67
2022-11-02T02:46:56.928Z,25.35
2022-11-02T02:47:36.330Z,23.63
2022-11-02T02:48:14.890Z,26.25
2022-11-02T02:48:48.914Z,29.77
2022-11-02T02:49:29.099Z,26.80
2022-11-02T02:50:06.929Z,21.98
2022-11-02T02:50:45.181Z,29.52
2022-11-02T02:51:25.792Z,76.28
2022-11-02T02:52:00.644Z,20.67
2022-11-02T02:52:34.952Z,27.10
2022-11-02T02:53:11.035Z,22.50
2022-11-02T02:53:47.546Z,28.88
2022-11-02T02:54:26.323Z,24.90
2022-11-02T02:55:03.745Z,26.17
2022-11-02T02:55:41.454Z,29.48
2022-11-02T02:56:16.420Z,26.23
2022-11-02T02:56:54.549Z,22.15
2022-11-02T02:57:30.837Z,29.05
2022-11-02T02:58:05.001Z,25.23
2022-11-02T02:58:48.066Z,29.73
2022-11-02T02:59:24.664Z,24.33
2022-11-02T02:59:56.854Z,26.35
2022-11-02T03:00:33.273Z,30.23
2022-11-02T03:01:06.907Z,23.05
2022-11-02T03:01:44.383Z,24.83
2022-11-02T03:02:24.078Z,28.02
2022-11-02T03:03:01.466Z,28.13
2022-11-02T03:03:35.160Z,33.83
2022-11-02T03:04:14.449Z,26.15
2022-11-02T03:04:46.530Z,30.85
2022-11-02T03:05:26.608Z,34.97
2022-11-02T03:06:07.948Z,29.60
2022-11-02T03:06:45.393Z,27.48
2022-11-02T03:07:23.806Z,21.58
2022-11-02T03:08:03.471Z,30.65
2022-11-02T03:08:38.028Z,30.08
2022-11-02T03:09:21.573Z,35.35
2022-11-02T03:10:05.954Z,30.65
2022-11-02T03:10:49.428Z,35.20
2022-11-02T03:11:23.470Z,33.35
2022-11-02T03:12:09.297Z,36.58
2022-11-02T03:12:55.658Z,42.47
2022-11-02T03:13:39.005Z,28.60
2022-11-02T03:14:27.313Z,32.80
2022-11-02T03:15:10.516Z,35.67
2022-11-02T03:15:49.381Z,30.58
2022-11-02T03:16:41.767Z,25.10
2022-11-02T03:17:16.978Z,23.48
2022-11-02T03:18:03.775Z,23.10
2022-11-02T03:18:49.986Z,32.63
2022-11-02T03:19:30.820Z,31.08
2022-11-02T03:20:12.022Z,25.45
2022-11-02T03:21:01.230Z,22.75
2022-11-02T03:21:40.689Z,42.78
2022-11-02T03:22:33.296Z,25.88
2022-11-02T03:23:16.688Z,27.00
2022-11-02T03:23:55.722Z,35.30
2022-11-02T03:24:35.926Z,31.23
2022-11-02T03:25:56.213Z,25.23
2022-11-02T03:26:34.654Z,29.90
2022-11-02T03:27:18.857Z,26.08
2022-11-02T03:27:58.823Z,23.60
2022-11-02T03:28:43.181Z,31.58
2022-11-02T03:29:21.808Z,35.60
2022-11-02T03:30:04.341Z,31.33
2022-11-02T03:30:42.874Z,33.35
2022-11-02T03:31:25.152Z,33.15
2022-11-02T03:32:01.001Z,31.58
2022-11-02T03:32:39.709Z,29.38
2022-11-02T03:33:22.400Z,25.92
2022-11-02T03:33:59.956Z,24.00
2022-11-02T03:34:37.816Z,32.40
2022-11-02T03:35:20.453Z,47.08
2022-11-02T03:36:00.170Z,28.52
2022-11-02T03:36:37.863Z,67.15
2022-11-02T03:37:19.634Z,26.95
2022-11-02T03:37:56.574Z,27.27
2022-11-02T03:38:38.068Z,36.80
2022-11-02T03:39:13.963Z,30.50
2022-11-02T03:39:49.280Z,40.25
2022-11-02T03:40:28.855Z,37.90
2022-11-02T03:41:03.421Z,29.77
2022-11-02T03:41:38.000Z,25.48
2022-11-02T03:42:16.573Z,32.60
2022-11-02T03:42:50.923Z,26.02
2022-11-02T03:43:25.212Z,38.72
2022-11-02T03:44:07.106Z,37.63
2022-11-02T03:45:18.974Z,29.98
2022-11-02T03:45:57.817Z,25.67
2022-11-02T03:46:34.350Z,23.52
2022-11-02T03:47:10.989Z,30.00
2022-11-02T03:47:46.973Z,32.83
2022-11-02T03:48:24.677Z,24.90
2022-11-02T03:48:57.502Z,31.15
2022-11-02T03:49:31.815Z,23.98
2022-11-02T03:50:08.980Z,36.30
2022-11-02T03:50:52.553Z,27.02
2022-11-02T03:51:28.921Z,25.48
2022-11-02T03:52:09.061Z,42.55
2022-11-02T03:52:45.936Z,21.92
2022-11-02T03:53:25.712Z,24.98
2022-11-02T03:54:06.868Z,24.83
2022-11-02T03:54:43.848Z,36.45
2022-11-02T03:55:23.280Z,35.95
2022-11-02T03:56:00.642Z,35.08
2022-11-02T03:56:38.673Z,30.83
2022-11-02T03:57:19.119Z,26.40
2022-11-02T03:57:52.906Z,45.92
2022-11-02T03:58:30.377Z,34.85
2022-11-02T03:59:05.513Z,32.33
2022-11-02T03:59:37.988Z,41.38
2022-11-02T04:00:15.798Z,29.85
2022-11-02T04:00:57.408Z,29.10
2022-11-02T04:01:31.758Z,42.90
2022-11-02T04:02:04.523Z,30.77
2022-11-02T04:02:39.025Z,37.05
2022-11-02T04:03:15.695Z,33.67
2022-11-02T04:03:50.150Z,38.15
2022-11-02T04:04:23.502Z,29.73
2022-11-02T04:04:58.816Z,33.22
2022-11-02T04:05:33.028Z,37.38
2022-11-02T04:06:09.157Z,32.03
2022-11-02T04:06:45.656Z,26.90
2022-11-02T04:07:22.337Z,41.28
2022-11-02T04:08:11.186Z,24.77
2022-11-02T04:08:49.446Z,31.98
2022-11-02T04:09:24.576Z,35.38
2022-11-02T04:09:56.923Z,35.75
2022-11-02T04:10:31.613Z,30.80
2022-11-02T04:11:18.888Z,44.03
2022-11-02T04:12:07.313Z,31.90
2022-11-02T04:12:54.515Z,31.50
2022-11-02T04:13:41.680Z,40.10
2022-11-02T04:14:28.795Z,29.63
2022-11-02T04:15:02.449Z,37.53
2022-11-02T04:15:40.289Z,42.75
2022-11-02T04:16:12.932Z,55.35
2022-11-02T04:16:46.554Z,90.65
2022-11-02T04:17:45.174Z,52.90
2022-11-02T04:18:35.229Z,90.35
2022-11-02T04:19:24.492Z,47.33
2022-11-02T04:20:00.741Z,41.17
2022-11-02T04:20:32.866Z,49.95
2022-11-02T04:21:05.597Z,34.47
2022-11-02T04:21:37.814Z,36.40
2022-11-02T04:22:25.231Z,54.85
2022-11-02T04:23:22.719Z,30.17
2022-11-02T04:24:10.931Z,47.95
2022-11-02T04:24:58.221Z,44.10
2022-11-02T04:25:33.434Z,62.30
2022-11-02T04:26:19.643Z,62.55
2022-11-02T04:26:51.779Z,56.58
2022-11-02T04:27:26.497Z,75.90
2022-11-02T04:28:07.895Z,65.00
2022-11-02T04:28:45.650Z,77.28
2022-11-02T04:29:17.784Z,42.28
2022-11-02T04:29:51.217Z,41.40
2022-11-02T04:30:27.279Z,84.00
2022-11-02T04:31:03.491Z,62.00
2022-11-02T04:32:35.814Z,46.33
2022-11-02T04:33:24.127Z,48.72
2022-11-02T04:34:01.593Z,51.78
2022-11-02T04:34:33.681Z,34.10
2022-11-02T04:35:07.367Z,41.53
2022-11-02T04:35:42.393Z,44.30
2022-11-02T04:36:14.990Z,39.63
2022-11-02T04:36:48.190Z,73.13
2022-11-02T04:37:35.188Z,65.90
2022-11-02T04:38:22.550Z,60.30
2022-11-02T04:38:55.108Z,52.35
2022-11-02T04:39:33.116Z,38.63
2022-11-02T04:40:06.175Z,46.10
2022-11-02T04:40:38.354Z,37.13
2022-11-02T04:41:28.021Z,32.28
2022-11-02T04:42:02.883Z,52.88
2022-11-02T04:43:15.333Z,61.83
2022-11-02T04:43:47.671Z,33.88
2022-11-02T04:44:24.846Z,71.97
2022-11-02T04:45:13.047Z,57.65
2022-11-02T04:45:45.366Z,96.15
2022-11-02T04:46:20.502Z,75.80
2022-11-02T04:46:55.960Z,61.92
2022-11-02T04:47:31.710Z,45.58
2022-11-02T04:48:05.884Z,38.22
2022-11-02T04:48:41.206Z,44.55
2022-11-02T04:49:14.429Z,58.28
2022-11-02T04:49:47.292Z,43.80
2022-11-02T04:50:25.306Z,45.67
2022-11-02T04:50:58.352Z,37.00
2022-11-02T04:51:31.674Z,75.25
2022-11-02T04:52:06.692Z,40.00
2022-11-02T04:52:40.790Z,38.17
2022-11-02T04:53:13.837Z,32.95
2022-11-02T04:53:49.276Z,33.47
2022-11-02T04:54:21.978Z,42.75
2022-11-02T04:54:59.165Z,55.35
2022-11-02T04:55:34.729Z,40.67
2022-11-02T04:56:07.666Z,36.20
2022-11-02T04:56:39.767Z,40.60
2022-11-02T04:57:14.639Z,43.53
2022-11-02T04:57:48.365Z,50.25
2022-11-02T04:58:20.436Z,86.22
2022-11-02T04:58:57.151Z,45.33
2022-11-02T04:59:29.299Z,61.15
2022-11-02T05:00:01.608Z,43.55
2022-11-02T05:00:38.439Z,68.20
2022-11-02T05:01:15.356Z,43.17
2022-11-02T05:01:51.506Z,49.45
2022-11-02T05:02:26.529Z,44.10
2022-11-02T05:02:59.258Z,56.20
2022-11-02T05:03:31.959Z,54.42
2022-11-02T05:04:06.921Z,70.45
2022-11-02T05:04:40.692Z,61.42
2022-11-02T05:05:13.716Z,59.55
2022-11-02T05:05:47.126Z,47.97
2022-11-02T05:06:23.632Z,63.70
2022-11-02T05:07:01.089Z,67.78
2022-11-02T05:07:33.898Z,118.10
2022-11-02T05:08:06.856Z,112.07
2022-11-02T05:08:42.275Z,109.05
2022-11-02T05:09:14.373Z,77.38
2022-11-02T05:09:49.833Z,84.40
2022-11-02T05:10:25.376Z,75.07
2022-11-02T05:10:59.681Z,63.03
2022-11-02T05:11:33.133Z,75.72
2022-11-02T05:12:08.586Z,58.75
2022-11-02T05:12:40.852Z,76.25
2022-11-02T05:13:12.941Z,92.60
2022-11-02T05:13:47.623Z,68.90
2022-11-02T05:14:19.753Z,80.45
2022-11-02T05:14:51.851Z,87.45
2022-11-02T05:15:24.053Z,93.90
2022-11-02T05:15:59.843Z,90.43
2022-11-02T05:16:31.978Z,130.75
2022-11-02T05:17:06.653Z,117.03
2022-11-02T05:17:43.277Z,100.30
2022-11-02T05:18:19.217Z,148.82
2022-11-02T05:18:52.318Z,132.63
2022-11-02T05:19:25.597Z,166.55
2022-11-02T05:20:00.771Z,149.18
2022-11-02T05:20:34.159Z,204.18
2022-11-02T05:21:06.443Z,204.07
2022-11-02T05:21:41.189Z,185.98
2022-11-02T05:22:13.445Z,149.35
2022-11-02T05:22:45.603Z,125.25
2022-11-02T05:23:22.549Z,185.52
2022-11-02T05:23:54.686Z,133.57
2022-11-02T05:24:26.776Z,194.70
2022-11-02T05:25:01.514Z,156.40
2022-11-02T05:25:34.310Z,160.52
2022-11-02T05:26:09.216Z,145.95
2022-11-02T05:26:44.352Z,163.52
2022-11-02T05:27:16.582Z,163.73
2022-11-02T05:27:50.505Z,157.63
2022-11-02T05:28:27.627Z,118.57
2022-11-02T05:28:59.839Z,161.82
2022-11-02T05:29:31.973Z,115.40
2022-11-02T05:30:08.608Z,159.77
2022-11-02T05:30:40.658Z,128.25
2022-11-02T05:31:12.848Z,126.35
2022-11-02T05:31:47.606Z,170.38
2022-11-02T05:32:23.082Z,150.80
2022-11-02T05:32:56.475Z,143.90
2022-11-02T05:33:32.567Z,123.22
2022-11-02T05:34:09.824Z,120.35
2022-11-02T05:34:42.641Z,154.45
2022-11-02T05:35:18.403Z,123.88
2022-11-02T05:35:50.531Z,171.00
2022-11-02T05:36:22.704Z,147.93
2022-11-02T05:36:59.403Z,151.93
2022-11-02T05:37:31.501Z,93.68
2022-11-02T05:38:03.932Z,163.00
2022-11-02T05:39:11.615Z,108.00
2022-11-02T05:39:47.766Z,163.35
2022-11-02T05:40:25.038Z,133.02
2022-11-02T05:40:59.565Z,121.22
2022-11-02T05:41:35.150Z,127.75
2022-11-02T05:42:09.964Z,143.80
2022-11-02T05:42:42.047Z,176.10
2022-11-02T05:43:16.701Z,175.13
2022-11-02T05:43:52.049Z,147.63
2022-11-02T05:44:26.070Z,164.27
2022-11-02T05:44:59.404Z,136.60
2022-11-02T05:45:34.127Z,160.60
2022-11-02T05:46:06.204Z,113.38
2022-11-02T05:46:38.274Z,123.13
2022-11-02T05:47:13.145Z,132.40
2022-11-02T05:47:47.903Z,157.95
2022-11-02T05:48:20.812Z,131.68
2022-11-02T05:48:55.489Z,166.50
2022-11-02T05:49:27.586Z,160.73
2022-11-02T05:49:59.957Z,154.75
2022-11-02T05:50:34.673Z,151.32
2022-11-02T05:51:08.211Z,125.90
2022-11-02T05:51:42.917Z,173.60
2022-11-02T05:52:15.532Z,308.67
2022-11-02T05:52:48.011Z,160.00
2022-11-02T05:53:22.750Z,173.48
2022-11-02T05:53:54.886Z,177.60
2022-11-02T05:54:27.012Z,136.07
2022-11-02T05:55:01.848Z,155.32
2022-11-02T05:55:35.516Z,146.65
2022-11-02T05:56:08.619Z,160.68
2022-11-02T05:56:43.431Z,203.63
2022-11-02T05:57:17.205Z,156.93
2022-11-02T05:57:51.617Z,158.18
2022-11-02T05:58:26.452Z,139.30
2022-11-02T05:58:58.585Z,185.45
2022-11-02T05:59:30.697Z,169.93
2022-11-02T06:00:05.957Z,172.45
2022-11-02T06:00:44.407Z,191.07
2022-11-02T06:01:17.285Z,161.02
2022-11-02T06:01:52.042Z,142.32
2022-11-02T06:02:25.458Z,224.18
2022-11-02T06:03:00.412Z,219.02
2022-11-02T06:03:36.254Z,180.32
2022-11-02T06:04:08.600Z,174.23
2022-11-02T06:04:40.712Z,191.38
2022-11-02T06:05:15.599Z,159.45
2022-11-02T06:05:47.933Z,140.18
2022-11-02T06:06:22.626Z,207.95
2022-11-02T06:06:54.955Z,207.02
2022-11-02T06:07:27.121Z,148.05
2022-11-02T06:08:02.665Z,189.05
2022-11-02T06:08:36.082Z,151.48
2022-11-02T06:09:08.645Z,142.63
2022-11-02T06:09:43.313Z,173.23
2022-11-02T06:10:15.466Z,251.63
2022-11-02T06:10:48.886Z,155.57
2022-11-02T06:11:23.763Z,198.20
2022-11-02T06:11:56.707Z,187.13
2022-11-02T06:12:29.070Z,175.55
2022-11-02T06:13:05.608Z,184.32
2022-11-02T06:13:38.312Z,175.98
2022-11-02T06:14:10.679Z,210.70
2022-11-02T06:14:45.400Z,238.23
2022-11-02T06:15:17.584Z,239.20
2022-11-02T06:15:52.683Z,263.40
2022-11-02T06:16:24.852Z,272.70
2022-11-02T06:16:57.512Z,268.73
2022-11-02T06:17:32.345Z,260.83
2022-11-02T06:18:07.997Z,250.30
2022-11-02T06:18:40.159Z,245.48
2022-11-02T06:20:08.596Z,212.32
2022-11-02T06:20:40.689Z,259.50
2022-11-02T06:21:15.761Z,256.27
2022-11-02T06:21:48.636Z,256.25
2022-11-02T06:22:20.908Z,284.13
2022-11-02T06:22:55.615Z,224.48
2022-11-02T06:23:28.640Z,266.60
2022-11-02T06:24:01.070Z,264.60
2022-11-02T06:24:35.778Z,276.90
2022-11-02T06:25:09.392Z,191.65
2022-11-02T06:25:41.498Z,206.25
2022-11-02T06:26:16.177Z,217.32
2022-11-02T06:26:49.021Z,206.50
2022-11-02T06:27:21.099Z,225.20
2022-11-02T06:27:57.785Z,241.60
2022-11-02T06:28:35.241Z,266.27
2022-11-02T06:29:09.930Z,224.80
2022-11-02T06:29:42.045Z,232.63
2022-11-02T06:30:14.117Z,197.95
2022-11-02T06:30:46.272Z,173.77
2022-11-02T06:31:21.006Z,192.57
2022-11-02T06:31:53.131Z,218.23
2022-11-02T06:32:25.395Z,206.90
2022-11-02T06:33:03.121Z,279.45
2022-11-02T06:33:40.671Z,268.67
2022-11-02T06:34:15.430Z,262.58
2022-11-02T06:34:47.561Z,233.50
2022-11-02T06:35:21.641Z,248.15
2022-11-02T06:35:57.277Z,273.70
2022-11-02T06:36:29.365Z,194.80
2022-11-02T06:37:01.461Z,263.75
2022-11-02T06:37:34.727Z,268.67
2022-11-02T06:38:09.381Z,254.38
2022-11-02T06:38:42.207Z,233.13
2022-11-02T06:39:16.950Z,183.88
2022-11-02T06:39:49.157Z,243.85
2022-11-02T06:40:24.106Z,205.82
2022-11-02T06:41:03.627Z,245.73
2022-11-02T06:41:37.905Z,216.35
2022-11-02T06:42:10.314Z,273.52
2022-11-02T06:42:56.529Z,225.57
2022-11-02T06:43:38.548Z,277.63
2022-11-02T06:44:13.256Z,271.00
2022-11-02T06:44:45.384Z,186.73
2022-11-02T06:45:17.669Z,236.85
2022-11-02T06:45:52.370Z,298.60
2022-11-02T06:46:24.457Z,189.85
2022-11-02T06:46:56.585Z,188.93
2022-11-02T06:47:34.074Z,201.80
2022-11-02T06:48:06.225Z,231.20
2022-11-02T06:48:40.918Z,162.43
2022-11-02T06:49:15.636Z,209.18
2022-11-02T06:49:47.714Z,195.48
2022-11-02T06:50:19.895Z,93.05
2022-11-02T06:50:54.821Z,153.48
2022-11-02T06:51:26.912Z,81.18
2022-11-02T06:52:01.681Z,153.25
2022-11-02T06:52:33.965Z,171.77
2022-11-02T06:53:06.405Z,236.85
2022-11-02T06:53:41.386Z,252.82
2022-11-02T06:54:13.796Z,209.35
2022-11-02T06:54:45.880Z,243.35
2022-11-02T06:55:21.507Z,240.60
2022-11-02T06:55:54.229Z,226.95
2022-11-02T06:56:28.967Z,183.68
2022-11-02T06:57:01.115Z,265.08
2022-11-02T06:57:36.521Z,272.92
2022-11-02T06:58:11.257Z,217.43
2022-11-02T06:58:43.360Z,275.63
2022-11-02T06:59:18.027Z,271.17
2022-11-02T06:59:53.902Z,298.92
2022-11-02T07:00:26.425Z,244.98
2022-11-02T07:01:02.967Z,243.50
2022-11-02T07:01:35.670Z,203.93
2022-11-02T07:02:09.329Z,170.32
2022-11-02T07:02:44.142Z,258.83
2022-11-02T07:03:16.733Z,303.13
2022-11-02T10:48:52.781Z,70.70
2022-11-02T10:49:50.372Z,90.35
2022-11-02T10:50:44.953Z,62.30
2022-11-02T10:51:22.049Z,62.40
2022-11-02T10:51:54.396Z,64.03
2022-11-02T10:52:35.005Z,70.70
2022-11-02T10:54:16.140Z,55.53
2022-11-02T10:54:54.709Z,75.32
2022-11-02T10:55:40.494Z,107.18
2022-11-02T10:56:20.419Z,101.43
2022-11-02T10:56:52.660Z,85.80
2022-11-02T10:57:26.423Z,108.18
2022-11-02T10:58:06.666Z,54.10
2022-11-02T10:58:44.207Z,50.47
2022-11-02T10:59:20.455Z,100.43
2022-11-02T11:00:23.143Z,74.95
2022-11-02T11:01:08.244Z,83.32
2022-11-02T11:01:46.289Z,55.85
2022-11-02T11:02:21.023Z,85.50
2022-11-02T11:03:10.741Z,74.03
2022-11-02T11:04:03.959Z,70.30
2022-11-02T11:04:36.210Z,91.45
2022-11-02T11:05:13.581Z,63.28
2022-11-02T11:06:03.073Z,93.13
2022-11-02T11:06:38.035Z,86.45
2022-11-02T11:07:16.120Z,73.05
2022-11-02T11:07:50.878Z,46.58
2022-11-02T11:08:37.718Z,72.75
2022-11-02T11:09:20.185Z,53.75
2022-11-02T11:09:55.251Z,66.28
2022-11-02T11:10:27.775Z,82.63
2022-11-02T11:11:18.048Z,79.30
2022-11-02T11:11:54.899Z,76.97
2022-11-02T11:12:35.544Z,56.13
2022-11-02T11:16:19.632Z,74.20
2022-11-02T11:19:51.861Z,82.40
2022-11-02T11:20:33.557Z,74.53
2022-11-02T11:21:09.948Z,74.07
2022-11-02T11:21:43.257Z,82.05
2022-11-02T11:22:28.658Z,91.60
2022-11-02T11:23:22.480Z,78.68
2022-11-02T11:24:19.205Z,106.90
2022-11-02T11:24:54.009Z,99.80
2022-11-02T11:25:28.424Z,109.00
2022-11-02T11:26:04.945Z,94.72
2022-11-02T11:26:37.040Z,138.88
2022-11-02T11:27:18.121Z,121.75
2022-11-02T11:27:54.580Z,93.38
2022-11-02T11:28:30.975Z,105.55
2022-11-02T11:29:05.676Z,84.07
2022-11-02T11:29:40.316Z,103.70
2022-11-02T11:30:54.072Z,101.45
2022-11-02T11:31:23.351Z,103.68
2022-11-02T11:31:55.558Z,184.98
2022-11-02T11:32:30.687Z,102.40
2022-11-02T11:33:08.471Z,122.80
2022-11-02T11:33:56.231Z,95.60
2022-11-02T11:34:34.242Z,96.03
2022-11-02T11:35:15.343Z,121.40
2022-11-02T11:35:51.079Z,81.80
2022-11-02T11:36:30.591Z,81.30
2022-11-02T11:37:09.989Z,86.82
2022-11-02T11:37:51.099Z,59.10
2022-11-02T11:38:26.913Z,116.10
2022-11-02T11:39:04.908Z,91.65
2022-11-02T11:39:39.262Z,114.03
2022-11-02T11:40:20.833Z,125.93
2022-11-02T11:40:55.138Z,129.05
2022-11-02T11:41:30.943Z,126.90